Home > Products > Valid Products > TAF

000
FTUS43 KUNR 301100
TAFRAP
TAF
KRAP 301120Z 3012/3112 VRB03KT P6SM SCT150
     FM302000 36011KT P6SM SCT250=



000
FTUS43 KUNR 301100
TAFGCC
TAF
KGCC 301120Z 3012/3112 00000KT P6SM BKN150
     FM302200 02011KT P6SM SCT250=



000
FTUS43 KUNR 300500
TAFRAP
TAF
KRAP 300520Z 3006/3106 VRB05KT P6SM BKN150
     FM302000 36011KT P6SM SCT250=



000
FTUS43 KUNR 300500
TAFGCC
TAF
KGCC 300520Z 3006/3106 24006KT P6SM BKN150
     FM301700 02011KT P6SM SCT250=



000
FTUS43 KUNR 292300
TAFRAP
TAF
KRAP 292320Z 3000/3024 15007KT P6SM BKN150
     FM301700 35011KT P6SM SCT250=



000
FTUS43 KUNR 292300
TAFGCC
TAF
KGCC 292320Z 3000/3024 VRB05KT P6SM BKN150
     FM301700 02009KT P6SM SCT250=



000
FTUS43 KUNR 291700
TAFRAP
TAF
KRAP 291720Z 2918/3018 14007KT P6SM SCT100 BKN200=



000
FTUS43 KUNR 291700
TAFGCC
TAF
KGCC 291720Z 2918/3018 14008KT P6SM VCSH BKN070 BKN090
     FM292200 VRB05KT P6SM BKN250=



000
FTUS43 KUNR 291300 RRA
TAFRAP
TAF
KRAP 291302Z 2913/3012 14007KT P6SM SCT100 BKN200=



000
FTUS43 KUNR 291300 RRA
TAFGCC
TAF
KGCC 291302Z 2913/3012 14008KT P6SM VCSH BKN070 BKN090
     FM292100 33006KT P6SM BKN100=



000
FTUS43 KUNR 290800 AAA
TAFGCC
TAF AMD
KGCC 290828Z 2908/3006 14008KT P6SM VCTS BKN070CB BKN090
      TEMPO 2908/2911 5SM -TSRA BKN040CB
     FM292100 02008KT P6SM BKN100=



000
FTUS43 KUNR 290500
TAFGCC
TAF
KGCC 290520Z 2906/3006 14008KT P6SM BKN100
     FM292000 02008KT P6SM BKN100=



000
FTUS43 KUNR 290500
TAFRAP
TAF
KRAP 290520Z 2906/3006 14007KT P6SM SCT100 BKN200=



000
FTUS43 KUNR 282300
TAFGCC
TAF
KGCC 282320Z 2900/2924 16008KT P6SM SCT250
     FM291700 36008KT P6SM BKN150=



000
FTUS43 KUNR 282300
TAFRAP
TAF
KRAP 282320Z 2900/2924 14007KT P6SM SCT250=



000
FTUS43 KUNR 281700
TAFRAP
TAF
KRAP 281720Z 2818/2918 14007KT P6SM FEW250=



000
FTUS43 KUNR 281700
TAFGCC
TAF
KGCC 281720Z 2818/2918 16010KT P6SM SKC
     FM282100 13006KT P6SM SCT250=



000
FTUS43 KUNR 281100
TAFRAP
TAF
KRAP 281120Z 2812/2912 06006KT P6SM FEW120
     FM281600 15006KT P6SM SCT250=



000
FTUS43 KUNR 281100
TAFGCC
TAF
KGCC 281120Z 2812/2912 VRB05KT P6SM SKC
     FM281400 16007KT P6SM SCT250=



000
FTUS43 KUNR 280500
TAFGCC
TAF
KGCC 280520Z 2806/2906 VRB05KT P6SM SKC
     FM281300 16009KT P6SM SCT250=



000
FTUS43 KUNR 280500
TAFRAP
TAF
KRAP 280520Z 2806/2906 06006KT P6SM SKC
     FM281500 14011KT P6SM SCT250=



000
FTUS43 KUNR 272300
TAFRAP
TAF
KRAP 272320Z 2800/2824 03006KT P6SM SKC
     FM281500 14011KT P6SM SKC=



000
FTUS43 KUNR 272300
TAFGCC
TAF
KGCC 272320Z 2800/2824 VRB05KT P6SM SKC
     FM281300 16009KT P6SM SCT250=



000
FTUS43 KUNR 272200 AAA
TAFRAP
TAF AMD
KRAP 272200Z 2722/2818 03005KT P6SM SKC=



000
FTUS43 KUNR 271700
TAFRAP
TAF
KRAP 271740Z 2718/2818 36012G22KT P6SM SKC
     FM280100 03005KT P6SM SKC=



000
FTUS43 KUNR 271700
TAFGCC
TAF
KGCC 271740Z 2718/2818 03008KT P6SM SKC=



    US Dept of Commerce
    National Oceanic and Atmospheric Administration
    National Weather Service
    1325 East West Highway
    Silver Spring, MD 20910
    Page Author: NWS Internet Services Team
Disclaimer
Information Quality
Credits
Glossary
Privacy Policy
Freedom of Information Act (FOIA)
About Us
Career Opportunities